Flight Track Log - Related Links

Times and Time Zones

All times are in EDT time to prevent confusion due to time zone crossing. See the FLG3787 flight status page for this flight to view local times or setup timezone preferences in your user account.

Time Position Orientation Groundspeed Altitude Reporting Facility
EDT Latitude Longitude Course Direction KTS MPH feet Rate Location/Type
Thu 02:21:56 PM 42.2017 -83.3553 178° South 162 186 1,300  Level Cleveland Center
Thu 02:22:58 PM 42.1475 -83.3531 178° South 214 246 3,500 2,051 Climbing Cleveland Center
Thu 02:23:53 PM 42.0872 -83.3419 172° South 271 312 5,300 2,328 Climbing Cleveland Center
Thu 02:24:54 PM 42.0667 -83.2403 105° East 285 328 8,000 2,270 Climbing Cleveland Center
Thu 02:26:21 PM 42.1078 -83.0881 70° East 304 350 10,900 1,837 Climbing Cleveland Center
Thu 02:27:21 PM 42.1517 -82.9778 62° Northeast 309 356 12,500 1,500 Climbing Cleveland Center
Thu 02:28:21 PM 42.2000 -82.8647 60° Northeast 321 369 13,900 1,350 Climbing Cleveland Center
Thu 02:29:21 PM 42.2503 -82.7431 61° Northeast 342 394 15,200 1,300 Climbing Cleveland Center
Thu 02:30:21 PM 42.3003 -82.6214 61° Northeast 360 414 16,500 1,300 Climbing Cleveland Center
Thu 02:31:21 PM 42.3525 -82.4936 61° Northeast 372 428 17,800 1,200 Climbing Cleveland Center
Thu 02:32:21 PM 42.3633 -82.3508 84° East 372 428 18,900 1,050 Climbing Cleveland Center
Thu 02:33:21 PM 42.3550 -82.1958 94° East 385 443 19,900 900 Climbing Cleveland Center
Thu 02:34:21 PM 42.3528 -82.0553 91° East 398 458 20,700 800 Climbing Cleveland Center
Thu 02:35:21 PM 42.3444 -81.8839 94° East 414 476 21,500 800 Climbing Cleveland Center
Thu 02:36:21 PM 42.3358 -81.7236 94° East 424 488 22,300 800 Climbing Cleveland Center
Thu 02:37:21 PM 42.3289 -81.5633 93° East 424 488 23,100 850 Climbing Cleveland Center
Thu 02:38:21 PM 42.3217 -81.4003 93° East 424 488 24,000 850 Climbing Cleveland Center
Thu 02:39:21 PM 42.3144 -81.2375 93° East 429 494 24,800 750 Climbing Cleveland Center
Thu 02:40:21 PM 42.3069 -81.0772 94° East 429 494 25,500 700 Climbing Cleveland Center
Thu 02:41:21 PM 42.2992 -80.9144 94° East 422 486 26,200 650 Climbing Cleveland Center
Thu 02:42:21 PM 42.2892 -80.7656 95° East 422 486 26,800 400 Climbing Cleveland Center
Thu 02:43:21 PM 42.2747 -80.6056 97° East 422 486 27,000 100 Climbing Cleveland Center
Thu 02:44:21 PM 42.2331 -80.4458 109° East 432 497 27,000  Level Cleveland Center
Thu 02:45:21 PM 42.1867 -80.2833 111° Southeast 453 521 27,000  Level Cleveland Center
Thu 02:46:21 PM 42.1444 -80.1211 109° East 461 531 27,000  Level Cleveland Center
Thu 02:47:21 PM 42.0894 -79.9369 112° Southeast 473 544 27,000  Level Cleveland Center
Thu 02:48:21 PM 42.0425 -79.7722 111° Southeast 473 544 27,000  Level Cleveland Center
Thu 02:49:21 PM 41.9956 -79.6053 111° Southeast 473 544 27,000  Level Cleveland Center
Thu 02:50:21 PM 41.9481 -79.4386 111° Southeast 473 544 27,000  Level Cleveland Center
Thu 02:51:21 PM 41.8983 -79.2664 111° Southeast 478 550 27,000  Level Cleveland Center
Thu 02:52:21 PM 41.8881 -79.1106 95° East 463 533 27,000  Level Cleveland Center
Thu 02:53:21 PM 41.8981 -78.9372 86° East 463 533 27,000  Level Cleveland Center
Thu 02:54:21 PM 41.9056 -78.7417 87° East 463 533 27,000  Level Cleveland Center
Thu 02:55:21 PM 41.9214 -78.5656 83° East 463 533 27,000  Level Cleveland Center
Thu 02:56:21 PM 41.9433 -78.3944 80° East 468 539 27,000  Level Cleveland Center
Thu 02:57:21 PM 41.9733 -78.2203 77° East 468 539 27,000  Level Cleveland Center
Thu 02:58:21 PM 42.0033 -78.0711 75° East 468 539 27,000  Level Cleveland Center
Thu 03:00:27 PM 42.0753 -77.7028 75° East 469 540 27,000  Level New York Center
Thu 03:01:27 PM 42.1078 -77.5331 75° East 469 540 27,000  Level New York Center
Thu 03:02:27 PM 42.1383 -77.3625 76° East 469 540 27,000  Level New York Center
Thu 03:03:27 PM 42.1725 -77.1925 75° East 469 540 27,000  Level New York Center
Thu 03:04:27 PM 42.2022 -77.0247 76° East 469 540 27,000  Level New York Center
Thu 03:06:13 PM 42.2567 -76.7297 76° East 478 550 27,000  Level Boston Center
Thu 03:07:13 PM 42.2900 -76.5608 75° East 478 550 27,000  Level Boston Center
Thu 03:08:13 PM 42.3192 -76.3856 77° East 473 544 27,000  Level Boston Center
Thu 03:09:11 PM 42.3522 -76.2164 75° East 468 539 27,000  Level Boston Center
Thu 03:10:11 PM 42.3808 -76.0381 78° East 473 544 27,000  Level Boston Center
Thu 03:11:12 PM 42.4133 -75.8683 75° East 473 544 27,000  Level Boston Center
Thu 03:12:12 PM 42.4414 -75.6928 78° East 468 539 27,000  Level Boston Center
Thu 03:13:11 PM 42.4711 -75.5225 77° East 468 539 27,000  Level Boston Center
Thu 03:14:11 PM 42.4989 -75.3408 78° East 473 544 27,000  Level Boston Center
Thu 03:15:11 PM 42.5303 -75.1647 76° East 473 544 27,000  Level Boston Center
Thu 03:16:13 PM 42.5594 -74.9883 77° East 473 544 27,000  Level Boston Center
Thu 03:17:13 PM 42.5858 -74.8258 78° East 478 550 27,000  Level Boston Center
Thu 03:18:11 PM 42.6167 -74.6464 77° East 483 556 27,000 -102 Level Boston Center
Thu 03:19:11 PM 42.6450 -74.4697 78° East 483 556 26,800 -700 Descending Boston Center
Thu 03:20:11 PM 42.6708 -74.2897 79° East 483 556 25,600 -1,190 Descending Boston Center
Thu 03:21:12 PM 42.7031 -74.1042 77° East 488 562 24,400 -1,190 Descending Boston Center
Thu 03:22:12 PM 42.7283 -73.9297 79° East 483 556 23,200 -1,173 Descending Boston Center
Thu 03:24:11 PM 42.7575 -73.5711 84° East 483 556 20,900 -1,207 Descending Boston Center
Thu 03:25:11 PM 42.7653 -73.4044 86° East 463 533 19,600 -934 Descending Boston Center
Thu 03:26:13 PM 42.7686 -73.2236 89° East 442 509 19,000 -295 Descending Boston Center
Thu 03:27:13 PM 42.7717 -73.0708 88° East 408 470 19,000  Level Boston Center
Thu 03:28:11 PM 42.7786 -72.9350 86° East 397 457 19,000 -51 Level Boston Center
Thu 03:29:11 PM 42.7856 -72.7711 87° East 397 457 18,900 -885 Descending Boston Center
Thu 03:30:13 PM 42.7878 -72.6128 89° East 407 468 17,200 -1,750 Descending Boston Center
Thu 03:31:11 PM 42.7922 -72.4600 88° East 407 468 15,400 -1,815 Descending Boston Center
Thu 03:32:12 PM 42.7942 -72.3100 89° East 401 461 13,600 -1,785 Descending Boston Center
Thu 03:33:12 PM 42.8022 -72.1683 86° East 383 441 11,800 -1,686 Descending Boston Center
Thu 03:34:13 PM 42.8144 -72.0353 83° East 358 412 10,200 -1,438 Descending Boston Center
Thu 03:35:13 PM 42.8411 -71.9306 71° East 314 361 8,900 -1,627 Descending Boston Center
Thu 03:36:11 PM 42.8886 -71.8364 55° Northeast 290 334 7,000 -1,525 Descending Boston Center
Thu 03:37:11 PM 42.9339 -71.7511 54° Northeast 285 328 5,900 -1,537 Descending Boston Center
Thu 03:38:12 PM 42.9836 -71.6794 47° Northeast 264 304 3,900 -1,537 Descending Boston Center
Thu 03:39:12 PM 43.0350 -71.6050 47° Northeast 259 298 2,800 -843 Descending Boston Center
Thu 03:40:13 PM 43.0428 -71.5311 82° East 223 257 2,200 -621 Descending Boston Center
Thu 03:42:06 PM 42.9833 -71.4500 135° Southeast 151 174 1,000 -637 Descending KA90
Thu 03:43:12 PM 42.9442 -71.4417 171° South 143 165 300 8,571 Descending Boston Center
Thu 03:44:12 PM 42.9044 -71.4169 155° Southeast 143 165 19,000 9,273 Climbing Boston Center
Thu 03:45:13 PM 42.8667 -71.3978 160° South 143 165 19,000  Level Boston Center
Thu 03:46:11 PM 42.8311 -71.3756 155° Southeast 143 165 19,000  Level Boston Center
Thu 03:47:11 PM 42.8017 -71.3592 158° South 143 165 19,000  Level Boston Center
Thu 03:49:00 PM 42.9167 -71.4333 316° Northwest  Level FlightAware Approximate
Thu 03:56:00 PM 42.9328 -71.4358 316° Northwest  Level Estimated
Thu 03:57:00 PM 42.9328 -71.4358 316° Northwest  Level Estimated
Thu 03:58:00 PM 42.9328 -71.4358 316° Northwest  Level Estimated
Thu 03:59:00 PM 42.9328 -71.4358 316° Northwest  Level Estimated

Login

Don't have an account? Register now (free) for customized features, flight alerts, and more!